EGGP

Liverpool John Lennon Airport

Liverpool, United Kingdom
METAR EGGP 210350Z 00000KT 9999 BKN015 17/16 Q1019
Observed Flight Rules
Aug-21 @ 03:50 UTC (19 minutes ago) Marginal Visual Flight Rules
Visibility Clouds
10,000+ meters
  • Broken at 1,500' AGL
Temperatures Readings
Current 17°C / 63°F
Dewpoint 16°C / 61°F
Humidity 94%
Altimeter 30.09" Hg
Pressure 1019 hPa
Elevation 26
METAR EGGP 210350Z 00000KT 9999 BKN015 17/16 Q1019
Observed Flight Rules
Aug-21 @ 03:50 UTC
(19 minutes ago)
MVFR
Clouds
  • Broken at 1,500' AGL
Temperature Dewpoint
17°C / 63°F 16°C / 61°F
Humidity Altimeter Pressure
94% 30.09" Hg 1019 hPa